Time;durP1;ratioP1;P1;durP2;ratioP2;P2;SDS_P1;SDS_P2;PMS_P1;PMS_P2;Temp;Humidity;BMP_temperature;BMP_pressure;BME280_temperature;BME280_humidity;BME280_pressure;Samples;Min_cycle;Max_cycle;Signal;HPM_P1;HPM_P2
2022/06/18 00:00:13;;;;;;;0.00;0.00;;;22.20;69.60;;;;;;5070165;28;20039;-71
2022/06/18 00:02:43;;;;;;;0.00;0.00;;;22.00;70.70;;;;;;5068320;28;20028;-71
2022/06/18 00:05:11;;;;;;;2.42;2.22;;;21.80;69.70;;;;;;5071127;28;20040;-72
2022/06/18 00:07:44;;;;;;;0.00;0.00;;;21.70;82.60;;;;;;5067638;28;20410;-71
2022/06/18 00:10:15;;;;;;;0.00;0.00;;;21.50;70.40;;;;;;5067654;28;20040;-71
2022/06/18 00:15:29;;;;;;;0.00;0.00;;;21.80;72.20;;;;;;5070476;28;20112;-72
2022/06/18 00:17:55;;;;;;;0.00;0.00;;;21.90;69.70;;;;;;5066602;28;20020;-72
2022/06/18 00:20:24;;;;;;;0.25;0.13;;;22.00;68.90;;;;;;5071438;28;20383;-71
2022/06/18 00:22:54;;;;;;;0.10;0.10;;;21.90;75.60;;;;;;5070596;28;20078;-71
2022/06/18 00:25:34;;;;;;;1.75;0.10;;;21.70;76.10;;;;;;5069940;28;20391;-71
2022/06/18 00:28:01;;;;;;;0.00;0.00;;;21.50;85.70;;;;;;5070201;28;20028;-71
2022/06/18 00:30:29;;;;;;;0.00;0.00;;;21.20;99.90;;;;;;5060947;28;20075;-72
2022/06/18 00:32:56;;;;;;;0.00;0.00;;;21.10;99.90;;;;;;5073970;28;20020;-71
2022/06/18 00:35:22;;;;;;;0.20;0.20;;;20.90;99.90;;;;;;5074072;28;20026;-71
2022/06/18 00:37:55;;;;;;;0.00;0.00;;;20.80;99.90;;;;;;5075319;28;20123;-71
2022/06/18 00:40:31;;;;;;;0.47;0.10;;;20.70;99.90;;;;;;5072422;28;20025;-72
2022/06/18 00:43:01;;;;;;;0.00;0.00;;;20.60;99.90;;;;;;5068378;28;20526;-72
2022/06/18 00:45:30;;;;;;;0.00;0.00;;;20.60;99.90;;;;;;5073278;28;20031;-71
2022/06/18 00:48:21;;;;;;;0.10;0.10;;;20.40;99.90;;;;;;5075210;28;20024;-72
2022/06/18 00:51:10;;;;;;;0.00;0.00;;;20.20;99.90;;;;;;5068424;28;20024;-71
2022/06/18 00:53:47;;;;;;;0.00;0.00;;;20.00;99.90;;;;;;5064902;28;20017;-71
2022/06/18 00:56:20;;;;;;;0.00;0.00;;;19.90;99.90;;;;;;5074428;28;20044;-71
2022/06/18 00:58:53;;;;;;;0.00;0.00;;;19.70;99.90;;;;;;5080242;28;20052;-71
2022/06/18 01:01:26;;;;;;;0.22;0.10;;;19.70;99.90;;;;;;5082226;28;20394;-71
2022/06/18 01:03:52;;;;;;;0.00;0.00;;;19.80;99.90;;;;;;5091825;28;20134;-71
2022/06/18 01:06:24;;;;;;;0.00;0.00;;;20.00;99.90;;;;;;5083274;28;20411;-71
2022/06/18 01:09:00;;;;;;;0.00;0.00;;;19.90;99.90;;;;;;5077895;28;20021;-71
2022/06/18 01:11:29;;;;;;;0.00;0.00;;;19.80;99.90;;;;;;5080554;28;20031;-72
2022/06/18 01:13:57;;;;;;;4.57;0.82;;;19.80;99.90;;;;;;5071680;28;20031;-71
2022/06/18 01:16:25;;;;;;;0.10;0.10;;;19.60;99.90;;;;;;5071064;28;20017;-72
2022/06/18 01:18:52;;;;;;;0.10;0.10;;;19.30;99.90;;;;;;5071047;28;20116;-71
2022/06/18 01:21:33;;;;;;;0.00;0.00;;;19.20;99.90;;;;;;5072606;28;20031;-71
2022/06/18 01:24:21;;;;;;;0.00;0.00;;;19.10;99.90;;;;;;5074066;28;20065;-71
2022/06/18 01:26:50;;;;;;;0.00;0.00;;;19.00;99.90;;;;;;5074344;28;20033;-71
2022/06/18 01:29:16;;;;;;;0.00;0.00;;;18.80;99.90;;;;;;5068947;28;20050;-72
2022/06/18 01:31:43;;;;;;;0.00;0.00;;;18.70;99.90;;;;;;5053182;28;20087;-71
2022/06/18 01:34:10;;;;;;;0.00;0.00;;;18.70;99.90;;;;;;5070348;28;20016;-72
2022/06/18 01:36:37;;;;;;;0.17;0.08;;;18.80;99.90;;;;;;5072845;28;20480;-72
2022/06/18 01:39:14;;;;;;;0.20;0.20;;;18.70;99.90;;;;;;5072977;28;20036;-73
2022/06/18 01:41:51;;;;;;;0.00;0.00;;;18.50;99.90;;;;;;5073434;28;20036;-72
2022/06/18 01:44:38;;;;;;;0.13;0.13;;;18.10;99.90;;;;;;5070742;28;20471;-72
2022/06/18 01:47:16;;;;;;;0.00;0.00;;;17.80;99.90;;;;;;5056441;28;20071;-72
2022/06/18 01:50:18;;;;;;;0.30;0.30;;;17.70;99.90;;;;;;5070840;28;20055;-72
2022/06/18 01:53:04;;;;;;;0.00;0.00;;;17.60;99.90;;;;;;5027445;28;20040;-72
2022/06/18 01:55:35;;;;;;;0.00;0.00;;;17.50;99.90;;;;;;5066173;28;20083;-72
2022/06/18 01:58:08;;;;;;;0.88;0.88;;;17.50;99.90;;;;;;5067220;28;20389;-72
2022/06/18 02:00:34;;;;;;;0.00;0.00;;;17.50;99.90;;;;;;5067153;28;20375;-72
2022/06/18 02:03:01;;;;;;;0.00;0.00;;;17.50;99.90;;;;;;5062787;28;20035;-71
2022/06/18 02:05:28;;;;;;;0.00;0.00;;;17.30;99.90;;;;;;5069726;28;20103;-72
2022/06/18 02:07:54;;;;;;;0.00;0.00;;;17.40;99.90;;;;;;5069137;28;20028;-72
2022/06/18 02:10:51;;;;;;;0.00;0.00;;;17.50;99.90;;;;;;5071777;28;20024;-72
2022/06/18 02:13:20;;;;;;;0.00;0.00;;;17.50;99.90;;;;;;5071146;28;20036;-72
2022/06/18 02:15:47;;;;;;;0.00;0.00;;;17.40;99.90;;;;;;5072052;28;20133;-72
2022/06/18 02:18:16;;;;;;;0.00;0.00;;;17.30;99.90;;;;;;5063424;28;20498;-72
2022/06/18 02:20:48;;;;;;;1.20;0.80;;;17.40;99.90;;;;;;5069874;28;20025;-72
2022/06/18 02:23:17;;;;;;;0.00;0.00;;;17.50;99.90;;;;;;5066182;28;20497;-73
2022/06/18 02:25:44;;;;;;;0.20;0.15;;;17.50;99.90;;;;;;5071733;28;20074;-72
2022/06/18 02:28:22;;;;;;;0.00;0.00;;;17.50;99.90;;;;;;5071063;28;20025;-72
2022/06/18 02:30:49;;;;;;;0.00;0.00;;;17.50;99.90;;;;;;5057225;28;20035;-72
2022/06/18 02:33:36;;;;;;;0.73;0.25;;;17.30;99.90;;;;;;5071184;28;20033;-71
2022/06/18 02:36:17;;;;;;;2.33;0.30;;;17.30;99.90;;;;;;5072640;28;20047;-72
2022/06/18 02:38:45;;;;;;;0.25;0.25;;;17.20;99.90;;;;;;5073035;28;20040;-73
2022/06/18 02:41:11;;;;;;;0.20;0.20;;;17.10;99.90;;;;;;5062935;28;20095;-71
2022/06/18 02:43:41;;;;;;;0.00;0.00;;;17.10;99.90;;;;;;5072461;28;20032;-70
2022/06/18 02:46:07;;;;;;;0.52;0.50;;;17.10;99.90;;;;;;5072460;28;20021;-71
2022/06/18 02:48:36;;;;;;;2.53;1.08;;;17.10;99.90;;;;;;5070624;28;20028;-71
2022/06/18 02:51:03;;;;;;;0.28;0.28;;;17.10;99.90;;;;;;5069387;28;20041;-72
2022/06/18 02:53:31;;;;;;;0.35;0.20;;;17.20;99.90;;;;;;5067605;28;20031;-71
2022/06/18 02:56:00;;;;;;;1.20;0.55;;;17.20;99.90;;;;;;5069631;28;20025;-72
2022/06/18 02:58:29;;;;;;;0.10;0.10;;;17.40;99.90;;;;;;5050660;28;20437;-72
2022/06/18 03:01:01;;;;;;;0.20;0.10;;;17.70;99.90;;;;;;5069428;28;20024;-71
2022/06/18 03:03:31;;;;;;;0.32;0.15;;;17.90;99.90;;;;;;5068567;28;20037;-73
2022/06/18 03:05:57;;;;;;;0.22;0.10;;;18.00;99.90;;;;;;5067646;28;20036;-71
2022/06/18 03:08:26;;;;;;;0.38;0.38;;;18.30;99.90;;;;;;5065116;28;20503;-74
2022/06/18 03:13:37;;;;;;;0.00;0.00;;;18.60;99.90;;;;;;5067935;28;20032;-72
2022/06/18 03:16:06;;;;;;;2.63;0.63;;;18.70;99.90;;;;;;5062785;28;20036;-73
2022/06/18 03:18:33;;;;;;;0.00;0.00;;;18.80;99.90;;;;;;5058212;28;20032;-73
2022/06/18 03:21:17;;;;;;;0.55;0.55;;;18.80;99.90;;;;;;5066117;28;20032;-72
2022/06/18 03:23:44;;;;;;;0.00;0.00;;;18.90;99.90;;;;;;5065539;28;20020;-73
2022/06/18 03:26:11;;;;;;;0.00;0.00;;;19.10;99.90;;;;;;5068506;28;20352;-73
2022/06/18 03:28:38;;;;;;;0.00;0.00;;;19.20;99.90;;;;;;5066423;28;20025;-73
2022/06/18 03:31:04;;;;;;;0.13;0.13;;;19.20;99.90;;;;;;5067942;28;20074;-73
2022/06/18 03:33:30;;;;;;;0.17;0.15;;;19.20;99.90;;;;;;5065082;28;20079;-73
2022/06/18 03:35:57;;;;;;;0.00;0.00;;;19.10;99.90;;;;;;5065702;28;20032;-73
2022/06/18 03:38:23;;;;;;;0.00;0.00;;;19.20;99.90;;;;;;5062798;28;20106;-71
2022/06/18 03:40:51;;;;;;;0.00;0.00;;;19.30;99.90;;;;;;5067049;28;20370;-72
2022/06/18 03:43:22;;;;;;;0.00;0.00;;;19.30;99.90;;;;;;5063613;28;20103;-72
2022/06/18 03:45:58;;;;;;;0.00;0.00;;;19.40;99.90;;;;;;5062666;28;20029;-73
2022/06/18 03:48:28;;;;;;;0.00;0.00;;;19.50;99.90;;;;;;5062754;28;20043;-73
2022/06/18 03:50:54;;;;;;;0.08;0.00;;;19.60;99.90;;;;;;5064387;28;20416;-71
2022/06/18 03:53:21;;;;;;;0.10;0.10;;;19.80;99.90;;;;;;5061945;28;20371;-72
2022/06/18 03:55:47;;;;;;;0.00;0.00;;;20.00;99.90;;;;;;5061450;28;20127;-71
2022/06/18 03:58:14;;;;;;;0.00;0.00;;;20.20;99.90;;;;;;5064699;28;20048;-71
2022/06/18 04:00:40;;;;;;;0.10;0.10;;;20.40;99.90;;;;;;5061959;28;20033;-72
2022/06/18 04:03:06;;;;;;;0.00;0.00;;;20.60;99.90;;;;;;5067027;28;20036;-72
2022/06/18 04:05:36;;;;;;;0.08;0.08;;;20.80;99.90;;;;;;5064202;28;20040;-76
2022/06/18 04:08:02;;;;;;;0.35;0.20;;;21.00;99.90;;;;;;5069483;28;20394;-72
2022/06/18 04:10:29;;;;;;;0.60;0.60;;;21.20;99.90;;;;;;5070023;28;20407;-73
2022/06/18 04:12:55;;;;;;;0.00;0.00;;;21.40;99.90;;;;;;5064148;28;20028;-74
2022/06/18 04:15:21;;;;;;;0.00;0.00;;;21.60;99.90;;;;;;5053089;28;20115;-72
2022/06/18 04:17:47;;;;;;;0.00;0.00;;;21.80;99.90;;;;;;5068521;28;20031;-73
2022/06/18 04:20:27;;;;;;;0.50;0.10;;;21.90;99.90;;;;;;5070065;28;20040;-72
2022/06/18 04:22:53;;;;;;;0.32;0.20;;;21.90;99.90;;;;;;5069776;28;20032;-72
2022/06/18 04:25:20;;;;;;;0.00;0.00;;;22.00;99.90;;;;;;5070144;28;20032;-72
2022/06/18 04:27:46;;;;;;;0.00;0.00;;;22.20;99.90;;;;;;5070815;28;20025;-72
2022/06/18 04:30:14;;;;;;;0.00;0.00;;;22.40;99.90;;;;;;5071999;28;20043;-73
2022/06/18 04:32:41;;;;;;;0.05;0.05;;;22.60;99.90;;;;;;5072895;28;20078;-72
2022/06/18 04:35:10;;;;;;;0.00;0.00;;;22.80;99.90;;;;;;5072874;28;20029;-72
2022/06/18 04:37:38;;;;;;;0.00;0.00;;;22.70;99.90;;;;;;5073418;28;20052;-72
2022/06/18 04:40:05;;;;;;;0.00;0.00;;;22.90;99.90;;;;;;5070663;28;20063;-71
2022/06/18 04:42:31;;;;;;;0.00;0.00;;;22.90;99.90;;;;;;5071737;28;20119;-72
2022/06/18 04:44:58;;;;;;;0.10;0.10;;;23.10;99.90;;;;;;5072025;28;20392;-72
2022/06/18 04:47:24;;;;;;;0.00;0.00;;;23.40;99.90;;;;;;5068605;28;20038;-72
2022/06/18 04:49:53;;;;;;;0.00;0.00;;;23.60;99.90;;;;;;5070671;28;20382;-74
2022/06/18 04:52:19;;;;;;;0.80;0.80;;;23.90;99.80;;;;;;5069866;28;20032;-73
2022/06/18 04:54:46;;;;;;;0.30;0.30;;;23.80;92.90;;;;;;5061333;28;20021;-73
2022/06/18 04:57:12;;;;;;;1.35;0.52;;;23.60;94.40;;;;;;5066418;28;20035;-73
2022/06/18 04:59:41;;;;;;;0.00;0.00;;;23.60;94.40;;;;;;5068679;28;20013;-73
2022/06/18 05:02:23;;;;;;;0.47;0.47;;;23.40;99.80;;;;;;5051497;28;20042;-73
2022/06/18 05:04:49;;;;;;;0.00;0.00;;;23.40;99.90;;;;;;5054966;28;20039;-74
2022/06/18 05:07:15;;;;;;;5.88;1.67;;;23.40;99.90;;;;;;5065047;28;20028;-73
2022/06/18 05:09:44;;;;;;;0.45;0.40;;;22.90;99.90;;;;;;5061851;28;20032;-73
2022/06/18 05:12:12;;;;;;;3.30;2.38;;;22.40;99.90;;;;;;5067900;28;20047;-73
2022/06/18 05:14:39;;;;;;;4.03;2.30;;;21.80;99.90;;;;;;5068386;28;20059;-73
2022/06/18 05:17:09;;;;;;;0.20;0.20;;;21.70;99.90;;;;;;5067126;28;20021;-73
2022/06/18 05:19:35;;;;;;;0.00;0.00;;;21.60;99.90;;;;;;5067269;28;20095;-73
2022/06/18 05:22:01;;;;;;;1.83;1.27;;;21.60;99.90;;;;;;5068912;28;20040;-74
2022/06/18 05:24:27;;;;;;;3.85;1.58;;;22.00;99.90;;;;;;5068184;28;20032;-73
2022/06/18 05:26:58;;;;;;;0.43;0.30;;;22.10;99.90;;;;;;5069217;28;20024;-73
2022/06/18 05:29:24;;;;;;;0.10;0.10;;;22.20;99.90;;;;;;5064107;28;20471;-73
2022/06/18 05:31:50;;;;;;;0.00;0.00;;;22.30;99.90;;;;;;5068457;28;20040;-74
2022/06/18 05:34:16;;;;;;;0.03;0.03;;;22.40;99.90;;;;;;5067217;28;20021;-72
2022/06/18 05:36:42;;;;;;;0.00;0.00;;;22.70;99.90;;;;;;5067747;28;20094;-73
2022/06/18 05:39:14;;;;;;;0.00;0.00;;;22.90;99.90;;;;;;5067655;28;20103;-73
2022/06/18 05:41:43;;;;;;;1.38;1.38;;;23.20;99.90;;;;;;5064431;28;20137;-73
2022/06/18 05:44:09;;;;;;;6.63;6.32;;;23.40;99.90;;;;;;5072488;28;20036;-73
2022/06/18 05:46:35;;;;;;;0.32;0.32;;;23.70;99.90;;;;;;5081222;28;20052;-73
2022/06/18 05:49:01;;;;;;;0.00;0.00;;;24.00;99.90;;;;;;5075899;28;20140;-72
2022/06/18 05:51:27;;;;;;;0.47;0.40;;;24.20;99.90;;;;;;5075412;28;20115;-74
2022/06/18 05:53:53;;;;;;;0.10;0.10;;;23.90;98.10;;;;;;5065887;28;20084;-73
2022/06/18 05:56:20;;;;;;;0.25;0.25;;;23.90;95.00;;;;;;5064481;28;20016;-73
2022/06/18 05:58:46;;;;;;;0.00;0.00;;;23.60;95.50;;;;;;5064083;28;20365;-72
2022/06/18 06:01:12;;;;;;;2.05;0.63;;;23.50;96.80;;;;;;5061903;28;20043;-73
2022/06/18 06:03:38;;;;;;;10.15;0.57;;;23.90;93.70;;;;;;5065197;28;20091;-73
2022/06/18 06:06:04;;;;;;;0.00;0.00;;;23.80;99.20;;;;;;5064818;28;20028;-73
2022/06/18 06:08:30;;;;;;;1.83;0.40;;;23.70;99.90;;;;;;5064109;28;20032;-72
2022/06/18 06:13:40;;;;;;;0.85;0.85;;;24.20;97.60;;;;;;5067074;28;20097;-73
2022/06/18 06:16:06;;;;;;;0.88;0.85;;;24.20;95.60;;;;;;5067942;28;20020;-72
2022/06/18 06:18:33;;;;;;;3.33;1.23;;;24.20;90.40;;;;;;5067825;28;20052;-72
2022/06/18 06:21:00;;;;;;;1.00;0.43;;;24.20;90.00;;;;;;5068792;28;20115;-72
2022/06/18 06:23:26;;;;;;;1.83;0.63;;;24.40;85.70;;;;;;5071283;28;20028;-72
2022/06/18 06:25:53;;;;;;;10.25;0.65;;;24.40;78.70;;;;;;5063423;28;20039;-73
2022/06/18 06:28:27;;;;;;;1.92;0.88;;;24.30;77.20;;;;;;5065701;28;20467;-72
2022/06/18 06:30:54;;;;;;;4.95;1.05;;;24.50;77.10;;;;;;5069893;28;20032;-73
2022/06/18 06:33:20;;;;;;;0.05;0.05;;;24.60;75.50;;;;;;5069061;28;20066;-73
2022/06/18 06:35:47;;;;;;;4.97;1.50;;;24.70;80.00;;;;;;5070113;28;20032;-73
2022/06/18 06:38:14;;;;;;;0.15;0.15;;;24.70;85.10;;;;;;5066521;28;20115;-73
2022/06/18 06:40:42;;;;;;;0.40;0.40;;;24.80;85.40;;;;;;5069268;28;20475;-73
2022/06/18 06:43:11;;;;;;;0.55;0.20;;;24.70;82.60;;;;;;5071039;28;20032;-72
2022/06/18 06:45:38;;;;;;;1.80;0.65;;;24.80;84.10;;;;;;5069512;28;20442;-72
2022/06/18 06:48:05;;;;;;;2.55;1.50;;;25.20;79.60;;;;;;5064563;28;20025;-72
2022/06/18 06:50:31;;;;;;;1.23;0.80;;;25.10;73.60;;;;;;5071008;28;20078;-73
2022/06/18 06:52:57;;;;;;;0.73;0.30;;;24.70;76.50;;;;;;5070495;28;20052;-72
2022/06/18 06:58:16;;;;;;;1.73;0.80;;;24.50;74.80;;;;;;5070585;28;20411;-74
2022/06/18 07:00:54;;;;;;;0.93;0.60;;;24.70;74.30;;;;;;5070626;28;20040;-74
2022/06/18 07:03:26;;;;;;;1.33;0.65;;;24.70;70.20;;;;;;5069135;28;20036;-74
2022/06/18 07:05:52;;;;;;;3.58;0.70;;;24.90;64.50;;;;;;5066511;28;20059;-72
2022/06/18 07:08:18;;;;;;;7.47;2.03;;;24.90;68.00;;;;;;5066827;28;20060;-72
2022/06/18 07:10:44;;;;;;;2.40;0.57;;;25.30;68.10;;;;;;5058422;28;20497;-73
2022/06/18 07:13:11;;;;;;;0.93;0.70;;;25.40;68.70;;;;;;5062559;28;20466;-74
2022/06/18 07:15:37;;;;;;;1.55;0.98;;;25.00;70.60;;;;;;5069948;28;20066;-73
2022/06/18 07:18:04;;;;;;;2.53;0.80;;;25.10;65.30;;;;;;5065569;28;20059;-74
2022/06/18 07:20:30;;;;;;;3.00;1.23;;;25.30;63.20;;;;;;5047394;28;20063;-74
2022/06/18 07:22:58;;;;;;;1.75;1.08;;;25.20;66.80;;;;;;5065327;28;20378;-75
2022/06/18 07:25:25;;;;;;;0.80;0.40;;;25.50;65.70;;;;;;5066889;28;20035;-73
2022/06/18 07:27:52;;;;;;;5.75;3.00;;;25.50;67.30;;;;;;5068851;28;20298;-72
2022/06/18 07:30:22;;;;;;;0.38;0.38;;;25.60;67.80;;;;;;5064043;28;20052;-73
2022/06/18 07:32:49;;;;;;;1.30;0.10;;;25.60;69.30;;;;;;5066665;28;20486;-71
2022/06/18 07:35:22;;;;;;;1.05;0.77;;;25.80;67.50;;;;;;5066441;28;20052;-72
2022/06/18 07:37:48;;;;;;;1.10;0.32;;;25.80;67.40;;;;;;5062862;28;20041;-73
2022/06/18 07:40:15;;;;;;;1.13;0.50;;;25.80;68.70;;;;;;5061304;28;20457;-72
2022/06/18 07:42:43;;;;;;;0.60;0.50;;;25.80;69.40;;;;;;5069424;28;20569;-72
2022/06/18 07:45:19;;;;;;;1.67;0.85;;;25.60;68.80;;;;;;5065572;28;20075;-73
2022/06/18 07:47:46;;;;;;;0.82;0.52;;;25.10;73.30;;;;;;5065620;28;20032;-73
2022/06/18 07:50:14;;;;;;;1.00;0.60;;;25.00;75.10;;;;;;5069683;28;20424;-72
2022/06/18 07:52:41;;;;;;;3.30;2.17;;;24.80;75.60;;;;;;5069289;28;20021;-73
2022/06/18 07:55:11;;;;;;;3.03;0.68;;;25.00;77.30;;;;;;5070524;28;20039;-73
2022/06/18 07:57:37;;;;;;;1.15;0.77;;;25.40;77.50;;;;;;5070865;28;20024;-73
2022/06/18 08:00:06;;;;;;;2.83;1.17;;;25.40;75.20;;;;;;5070858;28;20020;-73
2022/06/18 08:02:37;;;;;;;0.32;0.32;;;25.20;75.70;;;;;;5069474;28;20017;-72
2022/06/18 08:05:03;;;;;;;0.65;0.45;;;25.50;72.70;;;;;;5064123;28;20029;-71
2022/06/18 08:07:29;;;;;;;0.28;0.28;;;25.50;72.60;;;;;;5068946;28;20109;-72
2022/06/18 08:09:55;;;;;;;1.55;1.15;;;25.60;70.90;;;;;;5067804;28;20023;-74
2022/06/18 08:12:22;;;;;;;0.60;0.60;;;25.80;68.90;;;;;;5065980;28;20024;-73
2022/06/18 08:14:48;;;;;;;0.85;0.20;;;25.80;68.10;;;;;;5067148;28;20025;-74
2022/06/18 08:17:14;;;;;;;1.48;0.60;;;25.90;67.60;;;;;;5069756;28;20056;-72
2022/06/18 08:19:41;;;;;;;0.98;0.68;;;25.60;63.70;;;;;;5068629;28;20025;-74
2022/06/18 08:22:07;;;;;;;0.85;0.77;;;25.40;65.00;;;;;;5067157;28;20016;-73
2022/06/18 08:24:33;;;;;;;1.38;0.73;;;25.60;63.50;;;;;;5049192;28;20116;-73
2022/06/18 08:27:00;;;;;;;0.30;0.28;;;25.90;62.80;;;;;;5060250;28;20033;-73
2022/06/18 08:29:27;;;;;;;0.60;0.40;;;25.80;61.60;;;;;;5067562;28;20090;-72
2022/06/18 08:31:53;;;;;;;0.98;0.57;;;25.60;60.50;;;;;;5067986;28;20032;-73
2022/06/18 08:34:19;;;;;;;0.45;0.30;;;25.80;62.10;;;;;;5069271;28;20028;-73
2022/06/18 08:36:45;;;;;;;0.35;0.22;;;26.00;59.60;;;;;;5067602;28;20053;-73
2022/06/18 08:39:12;;;;;;;3.60;1.08;;;26.20;60.60;;;;;;5066695;28;20474;-75
2022/06/18 08:41:50;;;;;;;1.23;0.60;;;26.20;59.70;;;;;;5066256;28;20029;-74
2022/06/18 08:44:30;;;;;;;0.98;0.55;;;25.90;57.10;;;;;;5062096;28;20060;-74
2022/06/18 08:47:01;;;;;;;1.75;1.45;;;26.00;59.10;;;;;;5066554;28;20378;-74
2022/06/18 08:49:41;;;;;;;0.45;0.45;;;26.00;58.30;;;;;;5062061;28;20491;-75
2022/06/18 08:52:19;;;;;;;0.45;0.40;;;26.30;57.80;;;;;;5066429;28;20036;-74
2022/06/18 08:54:51;;;;;;;0.93;0.40;;;26.20;55.20;;;;;;5062942;28;20032;-74
2022/06/18 08:57:25;;;;;;;0.88;0.57;;;26.40;55.00;;;;;;5065349;28;20020;-73
2022/06/18 09:00:14;;;;;;;1.23;0.75;;;26.40;54.70;;;;;;5069498;28;20025;-74
2022/06/18 09:03:04;;;;;;;4.28;0.93;;;26.40;54.40;;;;;;5070931;28;20028;-74
2022/06/18 09:06:01;;;;;;;1.40;0.70;;;26.40;53.70;;;;;;5071852;28;20635;-75
2022/06/18 09:08:37;;;;;;;0.30;0.10;;;26.50;54.40;;;;;;5069911;28;20059;-75
2022/06/18 09:11:34;;;;;;;0.30;0.30;;;26.70;55.80;;;;;;5065185;28;20025;-75
2022/06/18 09:14:08;;;;;;;0.45;0.40;;;26.70;52.90;;;;;;5068010;28;20032;-74
2022/06/18 09:16:44;;;;;;;0.68;0.30;;;26.70;52.90;;;;;;5072752;28;20028;-74
2022/06/18 09:19:17;;;;;;;0.38;0.30;;;26.60;52.10;;;;;;5086246;28;20028;-73
2022/06/18 09:21:55;;;;;;;0.10;0.10;;;26.80;52.20;;;;;;5081950;28;20035;-74
2022/06/18 09:24:53;;;;;;;0.50;0.20;;;26.80;51.90;;;;;;5068537;28;20115;-74
2022/06/18 09:27:24;;;;;;;2.78;0.68;;;27.00;52.10;;;;;;5053807;28;20500;-74
2022/06/18 09:30:12;;;;;;;0.73;0.47;;;27.10;52.70;;;;;;5069906;28;20032;-75
2022/06/18 09:32:50;;;;;;;0.13;0.10;;;26.80;50.90;;;;;;5059714;28;20131;-73
2022/06/18 09:35:41;;;;;;;0.57;0.40;;;26.90;52.60;;;;;;5067921;28;20020;-74
2022/06/18 09:38:18;;;;;;;0.20;0.20;;;27.00;53.30;;;;;;5066780;28;20446;-74
2022/06/18 09:40:54;;;;;;;0.20;0.20;;;27.40;52.10;;;;;;5068080;28;20033;-74
2022/06/18 09:43:37;;;;;;;0.93;0.75;;;27.20;52.00;;;;;;5068260;28;20036;-74
2022/06/18 09:46:10;;;;;;;0.10;0.10;;;27.30;51.80;;;;;;5069085;28;20063;-74
2022/06/18 09:48:37;;;;;;;1.20;0.40;;;27.20;48.60;;;;;;5068408;28;20037;-75
2022/06/18 09:51:18;;;;;;;1.13;1.02;;;27.30;49.60;;;;;;5069443;28;20036;-73
2022/06/18 09:53:44;;;;;;;2.50;0.30;;;27.20;49.30;;;;;;5069772;28;20351;-74
2022/06/18 09:56:24;;;;;;;2.33;0.47;;;27.20;50.50;;;;;;5068817;28;20099;-74
2022/06/18 09:58:55;;;;;;;0.00;0.00;;;27.20;50.70;;;;;;5074980;28;20439;-74
2022/06/18 10:01:39;;;;;;;0.00;0.00;;;27.10;50.20;;;;;;5070990;28;20039;-75
2022/06/18 10:06:57;;;;;;;0.28;0.28;;;27.50;49.00;;;;;;5084484;28;20385;-74
2022/06/18 10:09:44;;;;;;;0.00;0.00;;;27.00;47.40;;;;;;5076639;28;20073;-72
2022/06/18 10:12:16;;;;;;;0.88;0.60;;;27.10;48.10;;;;;;5077303;28;20025;-73
2022/06/18 10:14:43;;;;;;;0.95;0.28;;;27.20;46.70;;;;;;5076300;28;20117;-72
2022/06/18 10:17:18;;;;;;;0.20;0.10;;;27.10;48.00;;;;;;5073024;28;20020;-73
2022/06/18 10:20:02;;;;;;;3.30;1.05;;;27.00;47.30;;;;;;5067334;28;20021;-72
2022/06/18 10:22:34;;;;;;;0.13;0.13;;;26.90;47.00;;;;;;5066911;28;20344;-73
2022/06/18 10:25:12;;;;;;;0.00;0.00;;;26.90;47.70;;;;;;5065231;28;20031;-73
2022/06/18 10:27:58;;;;;;;4.53;0.52;;;26.90;48.10;;;;;;5069458;28;20027;-72
2022/06/18 10:30:53;;;;;;;0.38;0.38;;;27.10;46.70;;;;;;5063113;28;20127;-72
2022/06/18 10:33:45;;;;;;;1.38;1.27;;;27.20;48.00;;;;;;5066946;28;20031;-72
2022/06/18 10:36:15;;;;;;;2.95;2.10;;;27.20;48.20;;;;;;5025201;28;20032;-72
2022/06/18 10:38:59;;;;;;;1.27;0.68;;;27.10;48.90;;;;;;5068090;28;20103;-73
2022/06/18 10:42:01;;;;;;;0.57;0.50;;;27.10;48.60;;;;;;5067493;28;20016;-72
2022/06/18 10:45:02;;;;;;;0.10;0.10;;;27.10;48.50;;;;;;5050922;28;20505;-74
2022/06/18 10:47:37;;;;;;;0.00;0.00;;;27.30;48.70;;;;;;5066218;28;20490;-73
2022/06/18 10:50:11;;;;;;;0.60;0.47;;;27.30;48.10;;;;;;5072852;28;20602;-72
2022/06/18 10:52:37;;;;;;;0.40;0.40;;;27.30;48.20;;;;;;5049896;28;20028;-72
2022/06/18 10:55:05;;;;;;;3.58;1.13;;;27.20;47.70;;;;;;5067837;28;20423;-73
2022/06/18 10:57:31;;;;;;;0.28;0.00;;;27.20;47.90;;;;;;5068892;28;20044;-72
2022/06/18 11:00:16;;;;;;;2.15;0.75;;;27.10;47.60;;;;;;5065719;28;20466;-73
2022/06/18 11:02:43;;;;;;;0.00;0.00;;;27.10;48.40;;;;;;5064224;28;20044;-73
2022/06/18 11:05:38;;;;;;;0.32;0.13;;;27.10;48.80;;;;;;5067187;28;20036;-73
2022/06/18 11:08:28;;;;;;;0.13;0.13;;;27.10;48.00;;;;;;5069473;28;20028;-73
2022/06/18 11:10:59;;;;;;;3.63;0.52;;;27.20;48.70;;;;;;5073672;28;20074;-72
2022/06/18 11:13:36;;;;;;;0.30;0.30;;;27.10;47.70;;;;;;5068794;28;20040;-72
2022/06/18 11:16:26;;;;;;;0.77;0.43;;;27.00;47.80;;;;;;5070064;28;20099;-73
2022/06/18 11:18:58;;;;;;;0.35;0.35;;;27.10;47.80;;;;;;5068487;28;20441;-72
2022/06/18 11:21:39;;;;;;;2.67;2.47;;;26.80;46.60;;;;;;5069261;28;20033;-73
2022/06/18 11:24:11;;;;;;;0.32;0.32;;;26.70;47.10;;;;;;5069182;28;20381;-73
2022/06/18 11:26:49;;;;;;;0.47;0.45;;;26.90;47.60;;;;;;5068092;28;20035;-72
2022/06/18 11:29:30;;;;;;;0.00;0.00;;;26.90;46.70;;;;;;5069213;28;20052;-73
2022/06/18 11:31:59;;;;;;;0.00;0.00;;;27.00;47.30;;;;;;5069579;28;20523;-73
2022/06/18 11:34:40;;;;;;;0.65;0.20;;;27.10;47.10;;;;;;5067532;28;20028;-73
2022/06/18 11:37:23;;;;;;;0.35;0.35;;;27.10;47.20;;;;;;5069906;28;20268;-73
2022/06/18 11:40:03;;;;;;;0.00;0.00;;;26.70;47.30;;;;;;5069967;28;20016;-72
2022/06/18 11:42:38;;;;;;;0.00;0.00;;;26.90;47.10;;;;;;5068872;28;20447;-73
2022/06/18 11:45:25;;;;;;;4.35;3.50;;;26.90;47.80;;;;;;5070641;28;20099;-73
2022/06/18 11:48:06;;;;;;;0.77;0.77;;;27.00;48.40;;;;;;5066094;28;20478;-73
2022/06/18 11:50:41;;;;;;;1.05;0.90;;;27.10;47.70;;;;;;5069132;28;20094;-73
2022/06/18 11:53:20;;;;;;;1.08;0.47;;;27.10;48.70;;;;;;5071426;28;20028;-73
2022/06/18 11:55:53;;;;;;;0.30;0.30;;;26.90;48.80;;;;;;5067034;28;20375;-73
2022/06/18 11:58:46;;;;;;;0.10;0.10;;;26.90;48.50;;;;;;5066295;28;20081;-72
2022/06/18 12:01:30;;;;;;;0.20;0.20;;;26.90;48.50;;;;;;5071461;28;20032;-73
2022/06/18 12:04:35;;;;;;;0.82;0.50;;;27.00;48.70;;;;;;5069721;28;20025;-73
2022/06/18 12:07:08;;;;;;;0.52;0.30;;;26.80;48.10;;;;;;5049096;28;20502;-73
2022/06/18 12:09:34;;;;;;;0.45;0.45;;;26.70;49.10;;;;;;5070546;28;20032;-73
2022/06/18 12:12:29;;;;;;;0.77;0.30;;;26.60;48.70;;;;;;5069428;28;20084;-73
2022/06/18 12:15:15;;;;;;;1.63;0.73;;;26.70;49.30;;;;;;5064403;28;20040;-73
2022/06/18 12:17:52;;;;;;;0.00;0.00;;;26.80;49.50;;;;;;5065154;28;20379;-74
2022/06/18 12:20:21;;;;;;;0.13;0.13;;;26.70;48.50;;;;;;5069808;28;20394;-73
2022/06/18 12:23:05;;;;;;;0.00;0.00;;;26.90;48.50;;;;;;5069819;28;20386;-74
2022/06/18 12:25:52;;;;;;;0.05;0.00;;;26.80;48.00;;;;;;5071542;28;20020;-74
2022/06/18 12:28:36;;;;;;;3.40;1.10;;;26.90;47.80;;;;;;5071517;28;20110;-73
2022/06/18 12:31:17;;;;;;;0.17;0.17;;;26.80;47.30;;;;;;5070380;28;20024;-74
2022/06/18 12:34:04;;;;;;;0.30;0.30;;;26.90;47.50;;;;;;5069039;28;20028;-74
2022/06/18 12:36:56;;;;;;;0.00;0.00;;;26.70;46.50;;;;;;5075079;28;20044;-74
2022/06/18 12:39:31;;;;;;;0.00;0.00;;;26.50;47.00;;;;;;5066804;28;20052;-73
2022/06/18 12:42:06;;;;;;;0.00;0.00;;;26.50;47.40;;;;;;5073796;28;20028;-74
2022/06/18 12:44:32;;;;;;;0.10;0.10;;;26.50;47.00;;;;;;5069117;28;20024;-74
2022/06/18 12:47:28;;;;;;;0.40;0.30;;;26.50;46.30;;;;;;5056879;28;20032;-74
2022/06/18 12:50:17;;;;;;;0.35;0.35;;;26.50;45.70;;;;;;5073397;28;20112;-73
2022/06/18 12:52:52;;;;;;;0.20;0.10;;;26.40;45.70;;;;;;5073648;28;20090;-73
2022/06/18 12:55:24;;;;;;;0.30;0.10;;;26.50;44.80;;;;;;5071219;28;20161;-74
2022/06/18 12:58:15;;;;;;;6.03;0.60;;;26.50;45.30;;;;;;5072236;28;20506;-73
2022/06/18 13:00:50;;;;;;;1.00;0.52;;;26.60;46.40;;;;;;5072840;28;20101;-73
2022/06/18 13:03:28;;;;;;;8.30;1.10;;;26.50;44.90;;;;;;5073869;28;20027;-73
2022/06/18 13:06:22;;;;;;;0.10;0.10;;;26.60;45.90;;;;;;5073228;28;20467;-72
2022/06/18 13:09:01;;;;;;;0.10;0.10;;;26.60;45.90;;;;;;5072912;28;20161;-73
2022/06/18 13:11:45;;;;;;;0.85;0.20;;;26.50;45.90;;;;;;5072805;28;20024;-73
2022/06/18 13:14:28;;;;;;;0.28;0.28;;;26.50;44.80;;;;;;5071289;28;20071;-73
2022/06/18 13:17:05;;;;;;;0.82;0.60;;;26.50;45.70;;;;;;5069202;28;20025;-73
2022/06/18 13:19:37;;;;;;;0.00;0.00;;;26.50;45.50;;;;;;5068143;28;20158;-73
2022/06/18 13:22:05;;;;;;;0.55;0.30;;;26.50;46.50;;;;;;5069711;28;20082;-73
2022/06/18 13:30:38;;;;;;;0.10;0.03;;;26.50;48.30;;;;;;5074157;28;20286;-73
2022/06/18 13:33:35;;;;;;;0.00;0.00;;;26.40;49.00;;;;;;5049928;28;20107;-73
2022/06/18 13:36:21;;;;;;;0.00;0.00;;;26.40;49.20;;;;;;5017820;28;20045;-72